sensor_id;sensor_type;location;lat;lon;timestamp;pressure;altitude;pressure_sealevel;temperature;humidity
68656;BME280;55638;51.122;13.606;2024-02-04T00:00:24;100488.81;;;8.48;60.86
68656;BME280;55638;51.122;13.606;2024-02-04T00:01:56;100480.75;;;8.48;60.88
68656;BME280;55638;51.122;13.606;2024-02-04T00:03:28;100479.81;;;8.49;60.93
68656;BME280;55638;51.122;13.606;2024-02-04T00:05:00;100486.03;;;8.49;60.87
68656;BME280;55638;51.122;13.606;2024-02-04T00:06:32;100481.53;;;8.50;60.94
68656;BME280;55638;51.122;13.606;2024-02-04T00:08:05;100476.03;;;8.51;60.99
68656;BME280;55638;51.122;13.606;2024-02-04T00:09:37;100473.34;;;8.51;60.98
68656;BME280;55638;51.122;13.606;2024-02-04T00:11:09;100481.41;;;8.51;60.94
68656;BME280;55638;51.122;13.606;2024-02-04T00:12:43;100461.53;;;8.54;61.04
68656;BME280;55638;51.122;13.606;2024-02-04T00:14:15;100470.44;;;8.54;60.90
68656;BME280;55638;51.122;13.606;2024-02-04T00:15:47;100467.75;;;8.54;60.90
68656;BME280;55638;51.122;13.606;2024-02-04T00:17:19;100457.97;;;8.53;60.94
68656;BME280;55638;51.122;13.606;2024-02-04T00:18:51;100460.66;;;8.53;61.11
68656;BME280;55638;51.122;13.606;2024-02-04T00:20:23;100440.88;;;8.54;60.91
68656;BME280;55638;51.122;13.606;2024-02-04T00:21:57;100457.84;;;8.55;60.80
68656;BME280;55638;51.122;13.606;2024-02-04T00:23:29;100466.91;;;8.54;60.98
68656;BME280;55638;51.122;13.606;2024-02-04T00:25:01;100458.09;;;8.52;60.89
68656;BME280;55638;51.122;13.606;2024-02-04T00:26:36;100459.91;;;8.51;60.94
68656;BME280;55638;51.122;13.606;2024-02-04T00:28:09;100466.16;;;8.52;60.90
68656;BME280;55638;51.122;13.606;2024-02-04T00:29:44;100460.88;;;8.50;60.86
68656;BME280;55638;51.122;13.606;2024-02-04T00:31:16;100462.81;;;8.48;60.99
68656;BME280;55638;51.122;13.606;2024-02-04T00:32:48;100468.31;;;8.47;61.07
68656;BME280;55638;51.122;13.606;2024-02-04T00:34:20;100468.19;;;8.48;60.90
68656;BME280;55638;51.122;13.606;2024-02-04T00:35:53;100474.53;;;8.47;61.03
68656;BME280;55638;51.122;13.606;2024-02-04T00:37:24;100475.50;;;8.46;61.01
68656;BME280;55638;51.122;13.606;2024-02-04T00:38:56;100480.03;;;8.46;61.09
68656;BME280;55638;51.122;13.606;2024-02-04T00:40:28;100489.88;;;8.45;61.22
68656;BME280;55638;51.122;13.606;2024-02-04T00:42:01;100472.06;;;8.44;61.22
68656;BME280;55638;51.122;13.606;2024-02-04T00:43:32;100473.75;;;8.45;61.20
68656;BME280;55638;51.122;13.606;2024-02-04T00:45:05;100487.31;;;8.44;61.33
68656;BME280;55638;51.122;13.606;2024-02-04T00:46:37;100480.13;;;8.44;61.18
68656;BME280;55638;51.122;13.606;2024-02-04T00:48:09;100489.03;;;8.45;61.12
68656;BME280;55638;51.122;13.606;2024-02-04T00:49:41;100488.19;;;8.44;61.10
68656;BME280;55638;51.122;13.606;2024-02-04T00:51:13;100489.03;;;8.45;61.07
68656;BME280;55638;51.122;13.606;2024-02-04T00:52:48;100489.16;;;8.43;61.09
68656;BME280;55638;51.122;13.606;2024-02-04T00:54:20;100473.03;;;8.43;61.06
68656;BME280;55638;51.122;13.606;2024-02-04T00:55:53;100461.53;;;8.41;61.22
68656;BME280;55638;51.122;13.606;2024-02-04T00:57:24;100465.94;;;8.42;61.09
68656;BME280;55638;51.122;13.606;2024-02-04T00:58:56;100458.97;;;8.40;61.08
68656;BME280;55638;51.122;13.606;2024-02-04T01:00:28;100460.88;;;8.38;61.31
68656;BME280;55638;51.122;13.606;2024-02-04T01:02:00;100462.59;;;8.39;61.14
68656;BME280;55638;51.122;13.606;2024-02-04T01:03:32;100472.47;;;8.38;61.00
68656;BME280;55638;51.122;13.606;2024-02-04T01:05:05;100469.91;;;8.37;61.13
68656;BME280;55638;51.122;13.606;2024-02-04T01:06:37;100470.78;;;8.37;61.18
68656;BME280;55638;51.122;13.606;2024-02-04T01:08:27;100456.56;;;8.35;61.37
68656;BME280;55638;51.122;13.606;2024-02-04T01:09:59;100469.06;;;8.36;61.13
68656;BME280;55638;51.122;13.606;2024-02-04T01:11:31;100454.88;;;8.34;61.10
68656;BME280;55638;51.122;13.606;2024-02-04T01:13:03;100465.63;;;8.34;61.01
68656;BME280;55638;51.122;13.606;2024-02-04T01:14:36;100469.28;;;8.33;61.12
68656;BME280;55638;51.122;13.606;2024-02-04T01:16:08;100475.59;;;8.32;61.26
68656;BME280;55638;51.122;13.606;2024-02-04T01:17:40;100481.09;;;8.30;61.12
68656;BME280;55638;51.122;13.606;2024-02-04T01:19:12;100478.28;;;8.32;61.18
68656;BME280;55638;51.122;13.606;2024-02-04T01:20:44;100479.25;;;8.31;61.04
68656;BME280;55638;51.122;13.606;2024-02-04T01:22:16;100482.06;;;8.29;61.28
68656;BME280;55638;51.122;13.606;2024-02-04T01:23:48;100483.88;;;8.29;61.16
68656;BME280;55638;51.122;13.606;2024-02-04T01:25:20;100474.00;;;8.29;60.94
68656;BME280;55638;51.122;13.606;2024-02-04T01:26:52;100462.38;;;8.29;61.21
68656;BME280;55638;51.122;13.606;2024-02-04T01:28:24;100460.56;;;8.29;61.00
68656;BME280;55638;51.122;13.606;2024-02-04T01:29:56;100460.66;;;8.28;60.98
68656;BME280;55638;51.122;13.606;2024-02-04T01:31:28;100466.16;;;8.26;60.97
68656;BME280;55638;51.122;13.606;2024-02-04T01:33:01;100466.25;;;8.25;60.93
68656;BME280;55638;51.122;13.606;2024-02-04T01:34:33;100467.09;;;8.25;60.87
68656;BME280;55638;51.122;13.606;2024-02-04T01:36:05;100460.03;;;8.24;60.76
68656;BME280;55638;51.122;13.606;2024-02-04T01:37:37;100466.44;;;8.22;60.52
68656;BME280;55638;51.122;13.606;2024-02-04T01:39:09;100463.88;;;8.20;60.35
68656;BME280;55638;51.122;13.606;2024-02-04T01:40:42;100464.94;;;8.18;60.35
68656;BME280;55638;51.122;13.606;2024-02-04T01:42:14;100473.19;;;8.15;60.39
68656;BME280;55638;51.122;13.606;2024-02-04T01:43:46;100476.09;;;8.12;60.45
68656;BME280;55638;51.122;13.606;2024-02-04T01:45:18;100461.16;;;8.07;60.33
68656;BME280;55638;51.122;13.606;2024-02-04T01:46:50;100454.28;;;8.03;60.44
68656;BME280;55638;51.122;13.606;2024-02-04T01:48:22;100462.56;;;8.00;60.48
68656;BME280;55638;51.122;13.606;2024-02-04T01:49:54;100470.69;;;7.99;60.52
68656;BME280;55638;51.122;13.606;2024-02-04T01:51:26;100481.63;;;7.96;60.72
68656;BME280;55638;51.122;13.606;2024-02-04T01:52:58;100473.78;;;7.93;60.67
68656;BME280;55638;51.122;13.606;2024-02-04T01:54:31;100475.75;;;7.91;60.71
68656;BME280;55638;51.122;13.606;2024-02-04T01:56:04;100479.28;;;7.91;60.95
68656;BME280;55638;51.122;13.606;2024-02-04T01:57:37;100476.69;;;7.90;60.87
68656;BME280;55638;51.122;13.606;2024-02-04T01:59:09;100479.50;;;7.88;60.91
68656;BME280;55638;51.122;13.606;2024-02-04T02:00:44;100480.34;;;7.89;61.05
68656;BME280;55638;51.122;13.606;2024-02-04T02:02:17;100485.72;;;7.89;61.23
68656;BME280;55638;51.122;13.606;2024-02-04T02:03:49;100476.69;;;7.90;61.03
68656;BME280;55638;51.122;13.606;2024-02-04T02:05:23;100466.81;;;7.90;61.01
68656;BME280;55638;51.122;13.606;2024-02-04T02:06:55;100466.81;;;7.90;61.06
68656;BME280;55638;51.122;13.606;2024-02-04T02:08:27;100464.03;;;7.92;61.13
68656;BME280;55638;51.122;13.606;2024-02-04T02:09:59;100459.53;;;7.92;61.07
68656;BME280;55638;51.122;13.606;2024-02-04T02:11:42;100455.66;;;7.96;61.12
68656;BME280;55638;51.122;13.606;2024-02-04T02:13:22;100452.13;;;7.96;61.20
68656;BME280;55638;51.122;13.606;2024-02-04T02:15:00;100439.53;;;7.96;61.15
68656;BME280;55638;51.122;13.606;2024-02-04T02:16:33;100442.03;;;7.99;61.06
68656;BME280;55638;51.122;13.606;2024-02-04T02:18:25;100448.38;;;7.98;61.31
68656;BME280;55638;51.122;13.606;2024-02-04T02:20:12;100443.75;;;8.00;61.22
68656;BME280;55638;51.122;13.606;2024-02-04T02:22:02;100440.97;;;8.02;61.02
68656;BME280;55638;51.122;13.606;2024-02-04T02:24:05;100440.75;;;8.05;61.06
68656;BME280;55638;51.122;13.606;2024-02-04T02:25:42;100440.66;;;8.06;61.11
68656;BME280;55638;51.122;13.606;2024-02-04T02:27:14;100441.50;;;8.07;61.05
68656;BME280;55638;51.122;13.606;2024-02-04T02:28:47;100437.84;;;8.08;61.16
68656;BME280;55638;51.122;13.606;2024-02-04T02:30:19;100441.38;;;8.08;60.97
68656;BME280;55638;51.122;13.606;2024-02-04T02:31:52;100445.78;;;8.09;61.18
68656;BME280;55638;51.122;13.606;2024-02-04T02:33:24;100441.31;;;8.10;61.07
68656;BME280;55638;51.122;13.606;2024-02-04T02:34:56;100438.50;;;8.12;61.05
68656;BME280;55638;51.122;13.606;2024-02-04T02:36:33;100442.81;;;8.14;61.18
68656;BME280;55638;51.122;13.606;2024-02-04T02:38:31;100445.56;;;8.13;61.04
68656;BME280;55638;51.122;13.606;2024-02-04T02:40:08;100445.38;;;8.16;61.12
68656;BME280;55638;51.122;13.606;2024-02-04T02:41:44;100457.84;;;8.17;61.10
68656;BME280;55638;51.122;13.606;2024-02-04T02:43:17;100452.56;;;8.15;61.11
68656;BME280;55638;51.122;13.606;2024-02-04T02:44:50;100443.44;;;8.18;61.12
68656;BME280;55638;51.122;13.606;2024-02-04T02:46:23;100443.44;;;8.18;61.14
68656;BME280;55638;51.122;13.606;2024-02-04T02:47:55;100440.75;;;8.18;61.41
68656;BME280;55638;51.122;13.606;2024-02-04T02:49:27;100429.03;;;8.19;61.14
68656;BME280;55638;51.122;13.606;2024-02-04T02:51:00;100436.16;;;8.20;61.14
68656;BME280;55638;51.122;13.606;2024-02-04T02:52:31;100429.91;;;8.19;61.44
68656;BME280;55638;51.122;13.606;2024-02-04T02:54:03;100432.50;;;8.21;61.18
68656;BME280;55638;51.122;13.606;2024-02-04T02:55:35;100427.97;;;8.21;61.35
68656;BME280;55638;51.122;13.606;2024-02-04T02:57:07;100432.38;;;8.22;61.42
68656;BME280;55638;51.122;13.606;2024-02-04T02:58:39;100431.50;;;8.22;61.51
68656;BME280;55638;51.122;13.606;2024-02-04T03:00:12;100434.13;;;8.23;61.34
68656;BME280;55638;51.122;13.606;2024-02-04T03:01:44;100435.94;;;8.23;61.27
68656;BME280;55638;51.122;13.606;2024-02-04T03:03:16;100438.53;;;8.24;61.42
68656;BME280;55638;51.122;13.606;2024-02-04T03:04:48;100431.34;;;8.25;61.34
68656;BME280;55638;51.122;13.606;2024-02-04T03:06:20;100433.94;;;8.26;61.37
68656;BME280;55638;51.122;13.606;2024-02-04T03:07:52;100433.81;;;8.28;61.31
68656;BME280;55638;51.122;13.606;2024-02-04T03:09:24;100431.03;;;8.29;61.39
68656;BME280;55638;51.122;13.606;2024-02-04T03:10:56;100438.13;;;8.30;61.38
68656;BME280;55638;51.122;13.606;2024-02-04T03:12:27;100425.53;;;8.31;61.49
68656;BME280;55638;51.122;13.606;2024-02-04T03:14:00;100433.38;;;8.34;61.35
68656;BME280;55638;51.122;13.606;2024-02-04T03:15:32;100434.34;;;8.33;61.42
68656;BME280;55638;51.122;13.606;2024-02-04T03:17:04;100432.41;;;8.35;61.24
68656;BME280;55638;51.122;13.606;2024-02-04T03:18:39;100422.44;;;8.37;61.22
68656;BME280;55638;51.122;13.606;2024-02-04T03:20:11;100426.81;;;8.38;61.32
68656;BME280;55638;51.122;13.606;2024-02-04T03:21:43;100425.88;;;8.39;61.21
68656;BME280;55638;51.122;13.606;2024-02-04T03:23:15;100435.63;;;8.40;61.30
68656;BME280;55638;51.122;13.606;2024-02-04T03:24:48;100434.66;;;8.41;61.13
68656;BME280;55638;51.122;13.606;2024-02-04T03:26:20;100439.31;;;8.39;61.21
68656;BME280;55638;51.122;13.606;2024-02-04T03:27:54;100435.63;;;8.40;61.11
68656;BME280;55638;51.122;13.606;2024-02-04T03:29:26;100427.66;;;8.39;61.25
68656;BME280;55638;51.122;13.606;2024-02-04T03:30:57;100434.03;;;8.38;61.22
68656;BME280;55638;51.122;13.606;2024-02-04T03:32:29;100429.50;;;8.38;61.08
68656;BME280;55638;51.122;13.606;2024-02-04T03:34:06;100428.78;;;8.36;61.06
68656;BME280;55638;51.122;13.606;2024-02-04T03:35:38;100428.88;;;8.35;61.28
68656;BME280;55638;51.122;13.606;2024-02-04T03:37:10;100437.78;;;8.35;61.12
68656;BME280;55638;51.122;13.606;2024-02-04T03:38:42;100442.50;;;8.31;61.33
68656;BME280;55638;51.122;13.606;2024-02-04T03:40:14;100438.97;;;8.31;61.18
68656;BME280;55638;51.122;13.606;2024-02-04T03:41:46;100439.09;;;8.29;61.25
68656;BME280;55638;51.122;13.606;2024-02-04T03:43:18;100448.94;;;8.29;61.43
68656;BME280;55638;51.122;13.606;2024-02-04T03:44:50;100448.94;;;8.29;61.27
68656;BME280;55638;51.122;13.606;2024-02-04T03:46:22;100437.47;;;8.27;61.38
68656;BME280;55638;51.122;13.606;2024-02-04T03:47:54;100444.56;;;8.28;61.13
68656;BME280;55638;51.122;13.606;2024-02-04T03:49:26;100444.69;;;8.26;61.14
68656;BME280;55638;51.122;13.606;2024-02-04T03:50:58;100450.03;;;8.26;61.15
68656;BME280;55638;51.122;13.606;2024-02-04T03:52:30;100455.50;;;8.25;61.31
68656;BME280;55638;51.122;13.606;2024-02-04T03:54:02;100453.69;;;8.25;61.20
68656;BME280;55638;51.122;13.606;2024-02-04T03:55:34;100449.06;;;8.27;61.17
68656;BME280;55638;51.122;13.606;2024-02-04T03:57:06;100451.88;;;8.26;61.27
68656;BME280;55638;51.122;13.606;2024-02-04T03:58:39;100439.41;;;8.25;61.26
68656;BME280;55638;51.122;13.606;2024-02-04T04:00:14;100448.31;;;8.25;61.25
68656;BME280;55638;51.122;13.606;2024-02-04T04:01:50;100446.59;;;8.24;61.31
68656;BME280;55638;51.122;13.606;2024-02-04T04:03:22;100433.16;;;8.24;61.40
68656;BME280;55638;51.122;13.606;2024-02-04T04:04:55;100435.75;;;8.26;61.44
68656;BME280;55638;51.122;13.606;2024-02-04T04:06:27;100425.97;;;8.25;61.33
68656;BME280;55638;51.122;13.606;2024-02-04T04:07:59;100416.06;;;8.25;61.37
68656;BME280;55638;51.122;13.606;2024-02-04T04:09:31;100412.53;;;8.25;61.38
68656;BME280;55638;51.122;13.606;2024-02-04T04:11:04;100414.28;;;8.26;61.20
68656;BME280;55638;51.122;13.606;2024-02-04T04:12:36;100412.53;;;8.25;61.27
68656;BME280;55638;51.122;13.606;2024-02-04T04:14:08;100411.69;;;8.24;61.16
68656;BME280;55638;51.122;13.606;2024-02-04T04:15:40;100416.16;;;8.24;61.18
68656;BME280;55638;51.122;13.606;2024-02-04T04:17:14;100418.84;;;8.24;61.06
68656;BME280;55638;51.122;13.606;2024-02-04T04:18:45;100410.78;;;8.24;61.07
68656;BME280;55638;51.122;13.606;2024-02-04T04:20:17;100404.47;;;8.25;61.13
68656;BME280;55638;51.122;13.606;2024-02-04T04:21:49;100408.09;;;8.24;61.20
68656;BME280;55638;51.122;13.606;2024-02-04T04:23:21;100405.50;;;8.22;61.24
68656;BME280;55638;51.122;13.606;2024-02-04T04:24:53;100398.34;;;8.23;61.36
68656;BME280;55638;51.122;13.606;2024-02-04T04:26:25;100400.16;;;8.22;61.39
68656;BME280;55638;51.122;13.606;2024-02-04T04:27:57;100392.09;;;8.22;61.29
68656;BME280;55638;51.122;13.606;2024-02-04T04:29:30;100404.66;;;8.22;61.29
68656;BME280;55638;51.122;13.606;2024-02-04T04:31:02;100403.72;;;8.23;61.38
68656;BME280;55638;51.122;13.606;2024-02-04T04:32:34;100395.66;;;8.23;61.21
68656;BME280;55638;51.122;13.606;2024-02-04T04:34:06;100399.19;;;8.23;61.21
68656;BME280;55638;51.122;13.606;2024-02-04T04:35:38;100408.91;;;8.26;61.13
68656;BME280;55638;51.122;13.606;2024-02-04T04:37:10;100408.03;;;8.25;61.25
68656;BME280;55638;51.122;13.606;2024-02-04T04:38:42;100407.16;;;8.25;61.26
68656;BME280;55638;51.122;13.606;2024-02-04T04:40:14;100416.06;;;8.25;61.26
68656;BME280;55638;51.122;13.606;2024-02-04T04:41:46;100408.91;;;8.26;61.46
68656;BME280;55638;51.122;13.606;2024-02-04T04:43:18;100407.06;;;8.26;61.34
68656;BME280;55638;51.122;13.606;2024-02-04T04:44:49;100400.50;;;8.30;61.24
68656;BME280;55638;51.122;13.606;2024-02-04T04:46:21;100401.50;;;8.29;61.45
68656;BME280;55638;51.122;13.606;2024-02-04T04:47:53;100411.25;;;8.30;61.39
68656;BME280;55638;51.122;13.606;2024-02-04T04:49:25;100396.84;;;8.31;61.34
68656;BME280;55638;51.122;13.606;2024-02-04T04:50:57;100407.38;;;8.35;61.33
68656;BME280;55638;51.122;13.606;2024-02-04T04:52:29;100398.47;;;8.34;61.37
68656;BME280;55638;51.122;13.606;2024-02-04T04:54:01;100399.22;;;8.36;61.39
68656;BME280;55638;51.122;13.606;2024-02-04T04:55:33;100409.09;;;8.36;61.20
68656;BME280;55638;51.122;13.606;2024-02-04T04:57:05;100400.06;;;8.37;61.21
68656;BME280;55638;51.122;13.606;2024-02-04T04:58:37;100400.06;;;8.37;61.33
68656;BME280;55638;51.122;13.606;2024-02-04T05:00:09;100397.28;;;8.38;61.03
68656;BME280;55638;51.122;13.606;2024-02-04T05:01:48;100377.53;;;8.39;60.92
68656;BME280;55638;51.122;13.606;2024-02-04T05:03:21;100378.59;;;8.37;60.71
68656;BME280;55638;51.122;13.606;2024-02-04T05:04:53;100382.22;;;8.36;60.56
68656;BME280;55638;51.122;13.606;2024-02-04T05:06:25;100384.06;;;8.35;60.55
68656;BME280;55638;51.122;13.606;2024-02-04T05:07:57;100380.63;;;8.33;60.52
68656;BME280;55638;51.122;13.606;2024-02-04T05:09:29;100381.59;;;8.32;60.77
68656;BME280;55638;51.122;13.606;2024-02-04T05:11:01;100383.63;;;8.28;60.82
68656;BME280;55638;51.122;13.606;2024-02-04T05:12:34;100384.50;;;8.29;60.88
68656;BME280;55638;51.122;13.606;2024-02-04T05:14:06;100380.09;;;8.28;60.89
68656;BME280;55638;51.122;13.606;2024-02-04T05:15:38;100381.16;;;8.25;60.97
68656;BME280;55638;51.122;13.606;2024-02-04T05:17:10;100377.63;;;8.25;61.15
68656;BME280;55638;51.122;13.606;2024-02-04T05:18:42;100378.47;;;8.25;61.23
68656;BME280;55638;51.122;13.606;2024-02-04T05:20:14;100372.16;;;8.26;61.26
68656;BME280;55638;51.122;13.606;2024-02-04T05:21:46;100365.94;;;8.26;61.36
68656;BME280;55638;51.122;13.606;2024-02-04T05:23:18;100367.66;;;8.27;61.41
68656;BME280;55638;51.122;13.606;2024-02-04T05:24:50;100372.78;;;8.30;61.16
68656;BME280;55638;51.122;13.606;2024-02-04T05:26:22;100367.44;;;8.30;61.21
68656;BME280;55638;51.122;13.606;2024-02-04T05:27:54;100358.53;;;8.29;61.28
68656;BME280;55638;51.122;13.606;2024-02-04T05:29:26;100379.78;;;8.32;61.30
68656;BME280;55638;51.122;13.606;2024-02-04T05:30:58;100371.72;;;8.32;61.19
68656;BME280;55638;51.122;13.606;2024-02-04T05:32:30;100367.22;;;8.33;61.12
68656;BME280;55638;51.122;13.606;2024-02-04T05:34:05;100372.47;;;8.35;61.31
68656;BME280;55638;51.122;13.606;2024-02-04T05:35:38;100364.41;;;8.35;61.26
68656;BME280;55638;51.122;13.606;2024-02-04T05:37:10;100362.56;;;8.35;61.28
68656;BME280;55638;51.122;13.606;2024-02-04T05:38:44;100358.94;;;8.36;61.37
68656;BME280;55638;51.122;13.606;2024-02-04T05:40:16;100357.19;;;8.35;61.33
68656;BME280;55638;51.122;13.606;2024-02-04T05:41:50;100350.00;;;8.36;61.13
68656;BME280;55638;51.122;13.606;2024-02-04T05:43:22;100349.13;;;8.35;60.95
68656;BME280;55638;51.122;13.606;2024-02-04T05:44:54;100342.06;;;8.34;60.95
68656;BME280;55638;51.122;13.606;2024-02-04T05:46:26;100351.94;;;8.33;61.03
68656;BME280;55638;51.122;13.606;2024-02-04T05:48:00;100353.88;;;8.31;61.13
68656;BME280;55638;51.122;13.606;2024-02-04T05:49:32;100350.47;;;8.29;61.29
68656;BME280;55638;51.122;13.606;2024-02-04T05:51:04;100342.50;;;8.28;61.06
68656;BME280;55638;51.122;13.606;2024-02-04T05:52:36;100342.63;;;8.26;61.32
68656;BME280;55638;51.122;13.606;2024-02-04T05:54:08;100350.78;;;8.25;61.18
68656;BME280;55638;51.122;13.606;2024-02-04T05:55:40;100340.97;;;8.24;61.34
68656;BME280;55638;51.122;13.606;2024-02-04T05:57:12;100334.75;;;8.23;61.21
68656;BME280;55638;51.122;13.606;2024-02-04T05:58:44;100340.97;;;8.24;61.25
68656;BME280;55638;51.122;13.606;2024-02-04T06:00:17;100340.97;;;8.24;61.43
68656;BME280;55638;51.122;13.606;2024-02-04T06:01:49;100328.53;;;8.23;61.31
68656;BME280;55638;51.122;13.606;2024-02-04T06:03:21;100339.25;;;8.23;61.27
68656;BME280;55638;51.122;13.606;2024-02-04T06:04:53;100340.22;;;8.22;61.58
68656;BME280;55638;51.122;13.606;2024-02-04T06:06:25;100340.97;;;8.24;61.37
68656;BME280;55638;51.122;13.606;2024-02-04T06:07:57;100336.50;;;8.24;61.46
68656;BME280;55638;51.122;13.606;2024-02-04T06:09:29;100339.19;;;8.24;61.53
68656;BME280;55638;51.122;13.606;2024-02-04T06:11:01;100325.66;;;8.26;61.57
68656;BME280;55638;51.122;13.606;2024-02-04T06:12:34;100330.03;;;8.27;61.68
68656;BME280;55638;51.122;13.606;2024-02-04T06:14:06;100340.78;;;8.27;61.63
68656;BME280;55638;51.122;13.606;2024-02-04T06:15:38;100339.94;;;8.26;61.64
68656;BME280;55638;51.122;13.606;2024-02-04T06:17:10;100337.25;;;8.26;61.70
68656;BME280;55638;51.122;13.606;2024-02-04T06:18:42;100340.56;;;8.30;61.70
68656;BME280;55638;51.122;13.606;2024-02-04T06:20:14;100338.81;;;8.29;61.86
68656;BME280;55638;51.122;13.606;2024-02-04T06:21:46;100336.91;;;8.31;61.95
68656;BME280;55638;51.122;13.606;2024-02-04T06:23:18;100327.13;;;8.30;61.80
68656;BME280;55638;51.122;13.606;2024-02-04T06:24:51;100325.31;;;8.30;62.04
68656;BME280;55638;51.122;13.606;2024-02-04T06:26:23;100330.69;;;8.30;61.98
68656;BME280;55638;51.122;13.606;2024-02-04T06:27:55;100321.66;;;8.31;61.74
68656;BME280;55638;51.122;13.606;2024-02-04T06:29:27;100319.94;;;8.30;61.87
68656;BME280;55638;51.122;13.606;2024-02-04T06:30:59;100312.72;;;8.31;61.84
68656;BME280;55638;51.122;13.606;2024-02-04T06:32:31;100304.69;;;8.31;61.68
68656;BME280;55638;51.122;13.606;2024-02-04T06:34:03;100294.06;;;8.29;61.81
68656;BME280;55638;51.122;13.606;2024-02-04T06:35:35;100296.75;;;8.29;61.73
68656;BME280;55638;51.122;13.606;2024-02-04T06:37:07;100284.47;;;8.25;61.82
68656;BME280;55638;51.122;13.606;2024-02-04T06:38:39;100293.44;;;8.26;61.69
68656;BME280;55638;51.122;13.606;2024-02-04T06:40:11;100292.63;;;8.24;61.78
68656;BME280;55638;51.122;13.606;2024-02-04T06:41:43;100298.97;;;8.23;61.97
68656;BME280;55638;51.122;13.606;2024-02-04T06:43:15;100295.41;;;8.22;61.85
68656;BME280;55638;51.122;13.606;2024-02-04T06:44:47;100305.31;;;8.22;61.87
68656;BME280;55638;51.122;13.606;2024-02-04T06:46:26;100297.38;;;8.20;62.10
68656;BME280;55638;51.122;13.606;2024-02-04T06:47:59;100293.06;;;8.18;62.09
68656;BME280;55638;51.122;13.606;2024-02-04T06:49:31;100294.78;;;8.19;62.13
68656;BME280;55638;51.122;13.606;2024-02-04T06:51:03;100297.59;;;8.17;62.19
68656;BME280;55638;51.122;13.606;2024-02-04T06:52:35;100302.09;;;8.17;62.27
68656;BME280;55638;51.122;13.606;2024-02-04T06:54:07;100304.78;;;8.17;62.34
68656;BME280;55638;51.122;13.606;2024-02-04T06:55:39;100312.00;;;8.16;62.29
68656;BME280;55638;51.122;13.606;2024-02-04T06:57:11;100313.78;;;8.16;62.39
68656;BME280;55638;51.122;13.606;2024-02-04T06:58:43;100303.06;;;8.16;62.16
68656;BME280;55638;51.122;13.606;2024-02-04T07:00:15;100307.47;;;8.17;62.23
68656;BME280;55638;51.122;13.606;2024-02-04T07:01:47;100304.78;;;8.17;62.29
68656;BME280;55638;51.122;13.606;2024-02-04T07:03:19;100302.09;;;8.17;62.22
68656;BME280;55638;51.122;13.606;2024-02-04T07:04:52;100291.16;;;8.20;62.17
68656;BME280;55638;51.122;13.606;2024-02-04T07:06:25;100291.16;;;8.20;62.39
68656;BME280;55638;51.122;13.606;2024-02-04T07:07:57;100294.78;;;8.19;62.38
68656;BME280;55638;51.122;13.606;2024-02-04T07:09:29;100291.16;;;8.20;62.40
68656;BME280;55638;51.122;13.606;2024-02-04T07:11:01;100291.03;;;8.21;62.33
68656;BME280;55638;51.122;13.606;2024-02-04T07:12:33;100299.84;;;8.23;62.30
68656;BME280;55638;51.122;13.606;2024-02-04T07:14:05;100294.47;;;8.23;62.35
68656;BME280;55638;51.122;13.606;2024-02-04T07:15:38;100289.94;;;8.24;62.38
68656;BME280;55638;51.122;13.606;2024-02-04T07:17:10;100292.63;;;8.24;62.52
68656;BME280;55638;51.122;13.606;2024-02-04T07:18:43;100298.78;;;8.26;62.38
68656;BME280;55638;51.122;13.606;2024-02-04T07:20:15;100296.00;;;8.27;62.44
68656;BME280;55638;51.122;13.606;2024-02-04T07:21:47;100295.00;;;8.28;62.51
68656;BME280;55638;51.122;13.606;2024-02-04T07:23:19;100290.41;;;8.30;62.49
68656;BME280;55638;51.122;13.606;2024-02-04T07:24:51;100294.78;;;8.31;62.58
68656;BME280;55638;51.122;13.606;2024-02-04T07:26:23;100289.19;;;8.35;62.55
68656;BME280;55638;51.122;13.606;2024-02-04T07:27:55;100289.94;;;8.37;62.52
68656;BME280;55638;51.122;13.606;2024-02-04T07:29:28;100289.94;;;8.37;62.67
68656;BME280;55638;51.122;13.606;2024-02-04T07:31:00;100288.00;;;8.39;62.53
68656;BME280;55638;51.122;13.606;2024-02-04T07:32:32;100287.13;;;8.38;62.69
68656;BME280;55638;51.122;13.606;2024-02-04T07:34:06;100292.41;;;8.40;62.69
68656;BME280;55638;51.122;13.606;2024-02-04T07:35:38;100287.53;;;8.45;62.50
68656;BME280;55638;51.122;13.606;2024-02-04T07:37:10;100286.47;;;8.47;62.69
68656;BME280;55638;51.122;13.606;2024-02-04T07:38:42;100285.50;;;8.48;62.66
68656;BME280;55638;51.122;13.606;2024-02-04T07:40:14;100281.72;;;8.51;62.46
68656;BME280;55638;51.122;13.606;2024-02-04T07:41:46;100289.47;;;8.55;62.58
68656;BME280;55638;51.122;13.606;2024-02-04T07:43:18;100276.75;;;8.57;62.56
68656;BME280;55638;51.122;13.606;2024-02-04T07:44:49;100272.16;;;8.60;62.37
68656;BME280;55638;51.122;13.606;2024-02-04T07:46:21;100268.47;;;8.61;62.44
68656;BME280;55638;51.122;13.606;2024-02-04T07:47:54;100269.22;;;8.63;62.36
68656;BME280;55638;51.122;13.606;2024-02-04T07:49:26;100269.97;;;8.65;62.26
68656;BME280;55638;51.122;13.606;2024-02-04T07:50:58;100274.25;;;8.67;62.29
68656;BME280;55638;51.122;13.606;2024-02-04T07:52:30;100276.00;;;8.68;62.46
68656;BME280;55638;51.122;13.606;2024-02-04T07:54:02;100264.97;;;8.71;62.41
68656;BME280;55638;51.122;13.606;2024-02-04T07:55:34;100263.81;;;8.75;62.41
68656;BME280;55638;51.122;13.606;2024-02-04T07:57:06;100275.19;;;8.79;62.52
68656;BME280;55638;51.122;13.606;2024-02-04T07:58:38;100277.63;;;8.82;62.60
68656;BME280;55638;51.122;13.606;2024-02-04T08:00:11;100281.06;;;8.84;62.42
68656;BME280;55638;51.122;13.606;2024-02-04T08:01:44;100290.50;;;8.90;62.50
68656;BME280;55638;51.122;13.606;2024-02-04T08:03:16;100285.63;;;8.95;62.48
68656;BME280;55638;51.122;13.606;2024-02-04T08:04:48;100280.75;;;9.00;62.19